createdAt,value
2016-10-19T00:00:18.241Z,23.72
2016-10-19T00:01:28.657Z,23.63
2016-10-19T00:02:39.180Z,23.64
2016-10-19T00:03:49.598Z,23.74
2016-10-19T00:05:00.011Z,23.78
2016-10-19T00:06:10.425Z,23.72
2016-10-19T00:07:20.844Z,23.6
2016-10-19T00:08:31.258Z,23.59
2016-10-19T00:09:41.681Z,23.47
2016-10-19T00:10:52.157Z,23.47
2016-10-19T00:12:17.218Z,23.44
2016-10-19T00:13:27.754Z,23.29
2016-10-19T00:14:38.295Z,23.37
2016-10-19T00:15:48.904Z,23.41
2016-10-19T00:16:59.439Z,23.26
2016-10-19T00:18:10.013Z,23.38
2016-10-19T00:19:20.546Z,23.29
2016-10-19T00:20:31.089Z,23.38
2016-10-19T00:21:41.625Z,23.37
2016-10-19T00:22:52.165Z,23.39
2016-10-19T00:24:02.704Z,23.23
2016-10-19T00:25:13.240Z,23.42
2016-10-19T00:26:23.810Z,23.29
2016-10-19T00:27:48.868Z,23.31
2016-10-19T00:28:59.501Z,23.23
2016-10-19T00:30:10.042Z,23.25
2016-10-19T00:31:20.582Z,23.19
2016-10-19T00:32:31.118Z,23.22
2016-10-19T00:33:41.660Z,23.18
2016-10-19T00:34:52.193Z,23.12
2016-10-19T00:36:17.253Z,23.11
2016-10-19T00:37:27.788Z,22.93
2016-10-19T00:38:38.325Z,23.03
2016-10-19T00:40:03.387Z,22.88
2016-10-19T00:41:28.451Z,23
2016-10-19T00:42:38.987Z,22.94
2016-10-19T00:43:50.044Z,22.97
2016-10-19T00:45:00.576Z,22.96
2016-10-19T00:46:11.215Z,22.93
2016-10-19T00:47:21.751Z,22.99
2016-10-19T00:48:32.290Z,23
2016-10-19T00:49:42.861Z,23.01
2016-10-19T00:50:53.497Z,22.89
2016-10-19T00:52:04.069Z,22.94
2016-10-19T00:53:29.138Z,22.85
2016-10-19T00:54:39.673Z,22.86
2016-10-19T00:55:50.215Z,22.75
2016-10-19T00:57:00.760Z,22.76
2016-10-19T00:58:11.301Z,22.66
2016-10-19T00:59:21.835Z,22.69
2016-10-19T01:00:32.373Z,22.63
2016-10-19T01:01:43.009Z,22.67
2016-10-19T01:02:53.540Z,22.7
2016-10-19T01:04:04.078Z,22.67
2016-10-19T01:05:14.611Z,22.75
2016-10-19T01:06:25.149Z,22.66
2016-10-19T01:07:35.685Z,22.66
2016-10-19T01:09:00.751Z,22.7
2016-10-19T01:10:11.317Z,22.69
2016-10-19T01:11:21.853Z,22.66
2016-10-19T01:12:32.489Z,22.6
2016-10-19T01:13:43.026Z,22.64
2016-10-19T01:14:53.597Z,22.7
2016-10-19T01:16:04.132Z,22.67
2016-10-19T01:17:14.708Z,22.63
2016-10-19T01:18:25.341Z,22.57
2016-10-19T01:19:35.877Z,22.61
2016-10-19T01:20:46.957Z,22.46
2016-10-19T01:21:57.490Z,22.46
2016-10-19T01:23:08.068Z,22.48
2016-10-19T01:24:18.610Z,22.49
2016-10-19T01:25:29.145Z,22.59
2016-10-19T01:26:39.689Z,22.51
2016-10-19T01:27:50.225Z,22.59
2016-10-19T01:29:00.796Z,22.67
2016-10-19T01:30:11.479Z,22.72
2016-10-19T01:31:22.010Z,22.61
2016-10-19T01:32:32.547Z,22.67
2016-10-19T01:33:43.613Z,22.66
2016-10-19T01:34:54.147Z,22.63
2016-10-19T01:36:04.787Z,22.48
2016-10-19T01:37:15.319Z,22.51
2016-10-19T01:38:25.859Z,22.51
2016-10-19T01:39:36.394Z,22.49
2016-10-19T01:40:46.928Z,22.49
2016-10-19T01:41:57.462Z,22.51
2016-10-19T01:43:08.001Z,22.45
2016-10-19T01:44:18.539Z,22.46
2016-10-19T01:45:29.081Z,22.45
2016-10-19T01:46:39.617Z,22.48
2016-10-19T01:47:50.253Z,22.52
2016-10-19T01:49:00.787Z,22.44
2016-10-19T01:50:11.313Z,22.48
2016-10-19T01:51:21.723Z,22.49
2016-10-19T01:52:32.134Z,22.46
2016-10-19T01:53:57.199Z,22.51
2016-10-19T01:55:07.618Z,22.51
2016-10-19T01:57:57.542Z,22.39
2016-10-19T02:00:33.063Z,22.52
2016-10-19T02:01:43.492Z,22.56
2016-10-19T02:02:53.902Z,22.59
2016-10-19T02:04:04.413Z,22.59
2016-10-19T02:05:14.780Z,22.64
2016-10-19T02:06:25.114Z,22.6
2016-10-19T02:07:35.439Z,22.7
2016-10-19T02:10:10.757Z,22.7
2016-10-19T02:11:21.083Z,22.74
2016-10-19T02:12:31.416Z,22.61
2016-10-19T02:13:41.788Z,22.61
2016-10-19T02:14:52.113Z,22.48
2016-10-19T02:16:02.534Z,22.46
2016-10-19T02:17:12.928Z,22.42
2016-10-19T02:18:23.259Z,22.35
2016-10-19T02:19:33.591Z,22.3
2016-10-19T02:20:43.916Z,22.21
2016-10-19T02:21:54.336Z,22.17
2016-10-19T02:23:04.700Z,22.27
2016-10-19T02:24:15.084Z,22.33
2016-10-19T02:25:25.530Z,22.29
2016-10-19T02:26:35.973Z,22.36
2016-10-19T02:28:00.964Z,22.36
2016-10-19T02:29:11.412Z,22.29
2016-10-19T02:30:21.857Z,22.36
2016-10-19T02:31:32.307Z,22.38
2016-10-19T02:32:42.753Z,22.31
2016-10-19T02:33:53.204Z,22.33
2016-10-19T02:35:03.645Z,22.2
2016-10-19T02:36:14.087Z,22.21
2016-10-19T02:37:24.538Z,22.12
2016-10-19T02:38:49.524Z,22.17
2016-10-19T02:39:59.970Z,22.17
2016-10-19T02:41:10.414Z,22.15
2016-10-19T02:42:20.895Z,22.23
2016-10-19T02:43:31.336Z,22.3
2016-10-19T02:44:41.814Z,22.3
2016-10-19T02:45:52.270Z,22.12
2016-10-19T02:47:02.717Z,22.11
2016-10-19T02:48:13.194Z,22.15
2016-10-19T02:49:23.685Z,22.19
2016-10-19T02:50:34.131Z,22.29
2016-10-19T02:51:44.579Z,22.27
2016-10-19T02:52:55.020Z,22.29
2016-10-19T02:54:05.467Z,22.35
2016-10-19T02:55:16.015Z,22.17
2016-10-19T02:56:26.457Z,22.17
2016-10-19T02:57:36.901Z,22.19
2016-10-19T02:58:47.355Z,22.2
2016-10-19T02:59:57.801Z,22.15
2016-10-19T03:01:08.380Z,22.11
2016-10-19T03:02:18.823Z,22.09
2016-10-19T03:03:29.306Z,22.2
2016-10-19T03:04:39.754Z,22.12
2016-10-19T03:05:50.195Z,22.26
2016-10-19T03:07:00.672Z,22.21
2016-10-19T03:08:11.114Z,22.26
2016-10-19T03:09:21.561Z,22.35
2016-10-19T03:10:32.003Z,22.17
2016-10-19T03:11:42.452Z,22.17
2016-10-19T03:13:07.435Z,22.19
2016-10-19T03:14:32.479Z,22.11
2016-10-19T03:15:57.467Z,21.99
2016-10-19T03:17:07.913Z,22.06
2016-10-19T03:18:33.010Z,21.98
2016-10-19T03:19:43.453Z,22.04
2016-10-19T03:20:53.904Z,22.05
2016-10-19T03:22:18.901Z,22.08
2016-10-19T03:23:29.443Z,22.06
2016-10-19T03:24:39.891Z,22.06
2016-10-19T03:25:50.335Z,22.01
2016-10-19T03:27:00.818Z,22.06
2016-10-19T03:28:11.267Z,22.15
2016-10-19T03:29:21.809Z,22.19
2016-10-19T03:30:32.257Z,22.09
2016-10-19T03:31:42.638Z,22.11
2016-10-19T03:32:52.965Z,21.98
2016-10-19T03:34:03.288Z,22.09
2016-10-19T03:35:13.617Z,22.04
2016-10-19T03:36:23.952Z,22.08
2016-10-19T03:37:34.274Z,22.09
2016-10-19T03:38:44.602Z,22.11
2016-10-19T03:39:55.403Z,22.14
2016-10-19T03:41:05.828Z,22.12
2016-10-19T03:42:16.662Z,22.09
2016-10-19T03:43:27.498Z,22.11
2016-10-19T03:44:38.300Z,22.01
2016-10-19T03:45:49.098Z,22.02
2016-10-19T03:46:59.420Z,22.01
2016-10-19T03:48:09.750Z,22.04
2016-10-19T03:49:20.071Z,21.94
2016-10-19T03:50:30.404Z,22.02
2016-10-19T03:51:40.732Z,21.99
2016-10-19T03:52:51.095Z,22.01
2016-10-19T03:54:01.418Z,22.11
2016-10-19T03:55:11.747Z,22.06
2016-10-19T03:56:22.075Z,22.02
2016-10-19T03:57:32.402Z,22.05
2016-10-19T03:58:42.722Z,22.01
2016-10-19T03:59:53.053Z,22.01
2016-10-19T04:01:03.380Z,22.08
2016-10-19T04:02:13.705Z,21.94
2016-10-19T04:03:24.029Z,21.93
2016-10-19T04:04:34.357Z,21.9
2016-10-19T04:05:44.687Z,21.89
2016-10-19T04:06:55.012Z,21.91
2016-10-19T04:08:05.339Z,21.91
2016-10-19T04:09:15.697Z,21.86
2016-10-19T04:10:26.129Z,21.91
2016-10-19T04:11:36.455Z,22.04
2016-10-19T04:12:46.782Z,21.94
2016-10-19T04:13:57.103Z,22.02
2016-10-19T04:15:07.542Z,22.02
2016-10-19T04:16:18.446Z,22.02
2016-10-19T04:17:28.772Z,22.05
2016-10-19T04:18:39.101Z,22.06
2016-10-19T04:19:49.479Z,22.04
2016-10-19T04:20:59.896Z,22.04
2016-10-19T04:22:10.412Z,21.99
2016-10-19T04:23:20.828Z,22.09
2016-10-19T04:24:31.245Z,22.02
2016-10-19T04:27:06.634Z,22.2
2016-10-19T04:28:17.048Z,22.11
2016-10-19T04:29:27.458Z,22.14
2016-10-19T04:30:37.875Z,22.08
2016-10-19T04:31:48.293Z,22.15
2016-10-19T04:32:58.708Z,22.21
2016-10-19T04:34:09.128Z,22.12
2016-10-19T04:35:19.542Z,22.15
2016-10-19T04:36:29.958Z,22.05
2016-10-19T04:37:40.370Z,22.11
2016-10-19T04:38:50.886Z,22.06
2016-10-19T04:40:01.297Z,22.08
2016-10-19T04:41:11.807Z,22.14
2016-10-19T04:42:22.264Z,22.17
2016-10-19T04:43:32.679Z,22.08
2016-10-19T04:44:43.198Z,22.19
2016-10-19T04:45:53.649Z,22.05
2016-10-19T04:47:04.061Z,22.06
2016-10-19T04:48:14.478Z,22.06
2016-10-19T04:49:24.892Z,22.04
2016-10-19T04:50:35.415Z,22.02
2016-10-19T04:51:45.826Z,22.01
2016-10-19T04:52:56.243Z,22.06
2016-10-19T04:54:06.658Z,22.09
2016-10-19T04:56:42.173Z,22.12
2016-10-19T04:57:52.618Z,22.02
2016-10-19T04:59:03.035Z,22.08
2016-10-19T05:00:13.453Z,21.94
2016-10-19T05:01:23.867Z,22.06
2016-10-19T05:02:34.279Z,22.04
2016-10-19T05:03:44.731Z,21.99
2016-10-19T05:04:55.095Z,22.05
2016-10-19T05:07:30.417Z,21.99
2016-10-19T05:08:40.744Z,22.02
2016-10-19T05:09:51.100Z,22.01
2016-10-19T05:11:01.484Z,21.91
2016-10-19T05:12:12.032Z,21.9
2016-10-19T05:13:22.470Z,21.99
2016-10-19T05:14:32.921Z,21.98
2016-10-19T05:15:43.368Z,21.98
2016-10-19T05:16:53.815Z,21.99
2016-10-19T05:18:04.361Z,21.98
2016-10-19T05:19:14.838Z,22.02
2016-10-19T05:20:25.280Z,22.05
2016-10-19T05:21:35.727Z,21.98
2016-10-19T05:23:00.720Z,21.99
2016-10-19T05:24:11.166Z,22.01
2016-10-19T05:25:21.608Z,21.98
2016-10-19T05:26:32.051Z,22.08
2016-10-19T05:27:42.495Z,21.98
2016-10-19T05:28:52.939Z,22.02
2016-10-19T05:30:03.386Z,21.99
2016-10-19T05:31:13.830Z,21.96
2016-10-19T05:32:24.273Z,22.05
2016-10-19T05:33:34.715Z,22.02
2016-10-19T05:34:45.157Z,22.06
2016-10-19T05:35:55.599Z,22.08
2016-10-19T05:38:31.030Z,22.04
2016-10-19T05:39:41.476Z,22.01
2016-10-19T05:40:51.919Z,22.01
2016-10-19T05:42:02.358Z,22.04
2016-10-19T05:43:12.804Z,22.11
2016-10-19T05:44:23.281Z,22.05
2016-10-19T05:45:33.670Z,22.04
2016-10-19T05:46:44.007Z,22.17
2016-10-19T05:47:54.330Z,22.21
2016-10-19T05:49:04.674Z,22.12
2016-10-19T05:50:14.999Z,22.09
2016-10-19T05:51:25.430Z,22.12
2016-10-19T05:52:35.758Z,22.05
2016-10-19T05:53:46.089Z,22.12
2016-10-19T05:54:56.415Z,22.15
2016-10-19T05:56:06.752Z,22.2
2016-10-19T05:57:17.172Z,22.21
2016-10-19T05:58:27.506Z,22.11
2016-10-19T05:59:37.834Z,22.23
2016-10-19T06:00:48.204Z,22.15
2016-10-19T06:01:59.005Z,22.06
2016-10-19T06:03:09.337Z,21.98
2016-10-19T06:04:19.660Z,21.98
2016-10-19T06:05:29.990Z,22.02
2016-10-19T06:06:54.883Z,22.01
2016-10-19T06:08:05.223Z,22.04
2016-10-19T06:09:15.647Z,22.08
2016-10-19T06:10:26.010Z,22.01
2016-10-19T06:11:36.339Z,22.02
2016-10-19T06:14:11.653Z,22.04
2016-10-19T06:15:21.979Z,22.06
2016-10-19T06:16:32.303Z,22.05
2016-10-19T06:17:42.664Z,22.01
2016-10-19T06:18:52.987Z,21.91
2016-10-19T06:20:03.470Z,21.89
2016-10-19T06:21:13.915Z,21.83
2016-10-19T06:22:24.372Z,21.89
2016-10-19T06:23:34.813Z,21.91
2016-10-19T06:24:45.256Z,22.02
2016-10-19T06:25:55.798Z,22.09
2016-10-19T06:27:06.245Z,21.98
2016-10-19T06:28:16.693Z,22.09
2016-10-19T06:29:27.137Z,22.11
2016-10-19T06:30:37.579Z,22.11
2016-10-19T06:31:48.162Z,22.12
2016-10-19T06:32:58.608Z,22.11
2016-10-19T06:34:24.086Z,22.14
2016-10-19T06:35:34.929Z,22.15
2016-10-19T06:36:45.478Z,22.14
2016-10-19T06:37:55.921Z,22.2
2016-10-19T06:39:06.367Z,22.17
2016-10-19T06:40:16.817Z,22.19
2016-10-19T06:41:27.262Z,22.15
2016-10-19T06:42:37.809Z,22.19
2016-10-19T06:43:48.258Z,22.05
2016-10-19T06:44:58.706Z,22.08
2016-10-19T06:46:09.151Z,22.2
2016-10-19T06:48:44.690Z,22.12
2016-10-19T06:49:55.133Z,22.11
2016-10-19T06:51:05.574Z,22.19
2016-10-19T06:52:16.017Z,22.29
2016-10-19T06:53:26.462Z,22.29
2016-10-19T06:54:36.909Z,22.24
2016-10-19T06:55:47.849Z,22.35
2016-10-19T06:56:58.299Z,22.14
2016-10-19T06:58:08.741Z,22.21
2016-10-19T06:59:19.184Z,22.11
2016-10-19T07:00:29.632Z,22.11
2016-10-19T07:01:40.079Z,22.12
2016-10-19T07:02:50.524Z,22.12
2016-10-19T07:04:00.986Z,22.26
2016-10-19T07:05:11.433Z,22.23
2016-10-19T07:06:21.874Z,22.26
2016-10-19T07:07:32.325Z,22.27
2016-10-19T07:08:42.775Z,22.29
2016-10-19T07:09:53.215Z,22.29
2016-10-19T07:11:03.658Z,22.39
2016-10-19T07:12:14.098Z,22.39
2016-10-19T07:13:24.537Z,22.45
2016-10-19T07:14:34.981Z,22.49
2016-10-19T07:15:45.462Z,22.48
2016-10-19T07:16:56.011Z,22.51
2016-10-19T07:18:06.455Z,22.49
2016-10-19T07:19:16.899Z,22.46
2016-10-19T07:20:27.346Z,22.54
2016-10-19T07:21:37.796Z,22.59
2016-10-19T07:23:02.820Z,22.59
2016-10-19T07:24:13.259Z,22.56
2016-10-19T07:25:23.749Z,22.51
2016-10-19T07:26:34.196Z,22.41
2016-10-19T07:27:44.636Z,22.38
2016-10-19T07:28:55.076Z,22.19
2016-10-19T07:30:05.522Z,22.29
2016-10-19T07:31:15.968Z,22.29
2016-10-19T07:32:26.420Z,22.23
2016-10-19T07:33:36.963Z,22.41
2016-10-19T07:34:47.440Z,22.42
2016-10-19T07:35:57.886Z,22.39
2016-10-19T07:37:08.341Z,22.46
2016-10-19T07:38:18.786Z,22.49
2016-10-19T07:39:29.331Z,22.46
2016-10-19T07:40:39.810Z,22.49
2016-10-19T07:41:50.250Z,22.6
2016-10-19T07:43:00.690Z,22.51
2016-10-19T07:44:11.128Z,22.56
2016-10-19T07:45:21.579Z,22.49
2016-10-19T07:46:32.063Z,22.6
2016-10-19T07:47:42.519Z,22.54
2016-10-19T07:49:07.511Z,22.57
2016-10-19T07:50:17.999Z,22.51
2016-10-19T07:51:28.472Z,22.51
2016-10-19T07:52:38.916Z,22.44
2016-10-19T07:53:49.362Z,22.56
2016-10-19T07:54:59.812Z,22.46
2016-10-19T07:56:10.358Z,22.48
2016-10-19T07:57:20.799Z,22.48
2016-10-19T07:58:31.183Z,22.29
2016-10-19T07:59:41.512Z,22.26
2016-10-19T08:00:51.870Z,22.27
2016-10-19T08:02:02.297Z,22.24
2016-10-19T08:03:12.619Z,22.3
2016-10-19T08:04:22.970Z,22.27
2016-10-19T08:05:33.873Z,22.11
2016-10-19T08:06:44.289Z,22.15
2016-10-19T08:07:54.808Z,22.17
2016-10-19T08:09:05.252Z,22.21
2016-10-19T08:10:15.667Z,22.17
2016-10-19T08:11:40.632Z,22.12
2016-10-19T08:12:51.149Z,22.19
2016-10-19T08:14:01.595Z,22.15
2016-10-19T08:15:12.012Z,22.19
2016-10-19T08:16:22.428Z,22.15
2016-10-19T08:17:32.844Z,22.24
2016-10-19T08:18:43.837Z,22.21
2016-10-19T08:19:54.257Z,22.17
2016-10-19T08:21:04.669Z,22.12
2016-10-19T08:22:15.081Z,22.2
2016-10-19T08:23:25.493Z,22.11
2016-10-19T08:24:35.942Z,22.08
2016-10-19T08:25:46.356Z,22.11
2016-10-19T08:26:56.770Z,22.12
2016-10-19T08:28:07.181Z,22.02
2016-10-19T08:29:17.595Z,21.99
2016-10-19T08:30:28.112Z,22.02
2016-10-19T08:31:38.528Z,22.14
2016-10-19T08:32:48.973Z,22.11
2016-10-19T08:33:59.389Z,22.09
2016-10-19T08:35:09.824Z,21.99
2016-10-19T08:36:20.343Z,21.99
2016-10-19T08:37:30.764Z,22.02
2016-10-19T08:38:41.177Z,22.06
2016-10-19T08:39:51.594Z,22.04
2016-10-19T08:41:02.011Z,21.98
2016-10-19T08:42:12.570Z,22.01
2016-10-19T08:43:22.979Z,22.02
2016-10-19T08:44:47.941Z,21.98
2016-10-19T08:45:58.352Z,21.99
2016-10-19T08:47:08.870Z,21.86
2016-10-19T08:48:19.287Z,21.98
2016-10-19T08:49:29.706Z,22.05
2016-10-19T08:50:40.116Z,22.06
2016-10-19T08:51:50.566Z,22.08
2016-10-19T08:53:00.982Z,22.14
2016-10-19T08:54:11.400Z,22.19
2016-10-19T08:55:21.817Z,22.19
2016-10-19T08:56:32.720Z,22.15
2016-10-19T08:57:43.136Z,22.12
2016-10-19T08:58:53.651Z,22.14
2016-10-19T09:00:18.620Z,22.17
2016-10-19T09:01:29.042Z,22.12
2016-10-19T09:02:39.461Z,22.12
2016-10-19T09:03:49.875Z,22.05
2016-10-19T09:05:00.289Z,22.08
2016-10-19T09:06:25.339Z,22.12
2016-10-19T09:07:35.875Z,22.19
2016-10-19T09:08:46.408Z,22.2
2016-10-19T09:09:57.045Z,22.14
2016-10-19T09:11:08.103Z,22.14
2016-10-19T09:12:33.168Z,22.17
2016-10-19T09:13:43.704Z,22.17
2016-10-19T09:14:54.375Z,22.21
2016-10-19T09:16:04.948Z,22.11
2016-10-19T09:18:40.550Z,22.12
2016-10-19T09:20:20.134Z,22.11
2016-10-19T09:21:30.674Z,22.11
2016-10-19T09:22:41.213Z,22.15
2016-10-19T09:23:51.788Z,22.09
2016-10-19T09:25:02.325Z,22.17
2016-10-19T09:26:12.902Z,22.21
2016-10-19T09:27:23.474Z,22.26
2016-10-19T09:28:34.006Z,22.31
2016-10-19T09:29:44.574Z,22.15
2016-10-19T09:30:55.212Z,22.29
2016-10-19T09:32:05.754Z,22.39
2016-10-19T09:33:16.290Z,22.39
2016-10-19T09:34:26.775Z,22.42
2016-10-19T09:35:37.217Z,22.41
2016-10-19T09:36:47.762Z,22.42
2016-10-19T09:37:58.204Z,22.44
2016-10-19T09:39:08.652Z,22.41
2016-10-19T09:40:19.101Z,22.36
2016-10-19T09:41:30.090Z,22.41
2016-10-19T09:42:40.548Z,22.44
2016-10-19T09:43:51.484Z,22.39
2016-10-19T09:45:01.941Z,22.51
2016-10-19T09:46:12.389Z,22.46
2016-10-19T09:47:22.835Z,22.51
2016-10-19T09:48:33.282Z,22.46
2016-10-19T09:49:43.728Z,22.49
2016-10-19T09:50:54.181Z,22.52
2016-10-19T09:52:04.629Z,22.61
2016-10-19T09:53:15.071Z,22.74
2016-10-19T09:54:25.524Z,22.82
2016-10-19T09:55:35.970Z,22.78
2016-10-19T09:56:46.415Z,22.82
2016-10-19T09:57:56.864Z,22.85
2016-10-19T09:59:07.309Z,22.75
2016-10-19T10:00:17.886Z,22.88
2016-10-19T10:01:28.336Z,22.91
2016-10-19T10:02:38.787Z,22.97
2016-10-19T10:03:49.233Z,22.94
2016-10-19T10:04:59.682Z,22.89
2016-10-19T10:06:10.232Z,22.97
2016-10-19T10:07:21.164Z,22.94
2016-10-19T10:08:31.604Z,22.97
2016-10-19T10:09:42.054Z,22.86
2016-10-19T10:10:52.500Z,22.91
2016-10-19T10:12:02.947Z,22.88
2016-10-19T10:13:13.392Z,22.91
2016-10-19T10:14:23.875Z,22.96
2016-10-19T10:15:34.318Z,23.12
2016-10-19T10:16:44.763Z,23.06
2016-10-19T10:17:55.204Z,23.11
2016-10-19T10:19:05.652Z,23.07
2016-10-19T10:20:16.090Z,23.19
2016-10-19T10:21:26.536Z,23.16
2016-10-19T10:22:36.982Z,23.21
2016-10-19T10:23:47.558Z,23.22
2016-10-19T10:24:58.004Z,23.32
2016-10-19T10:26:08.445Z,23.25
2016-10-19T10:27:18.889Z,23.29
2016-10-19T10:30:08.864Z,23.37
2016-10-19T10:31:19.311Z,23.45
2016-10-19T10:32:29.750Z,23.49
2016-10-19T10:33:40.197Z,23.42
2016-10-19T10:34:50.636Z,23.44
2016-10-19T10:36:01.087Z,23.41
2016-10-19T10:37:12.597Z,23.41
2016-10-19T10:38:23.036Z,23.47
2016-10-19T10:39:33.499Z,23.54
2016-10-19T10:40:43.941Z,23.59
2016-10-19T10:41:54.383Z,23.62
2016-10-19T10:43:19.370Z,23.68
2016-10-19T10:44:29.814Z,23.72
2016-10-19T10:45:40.357Z,23.78
2016-10-19T10:46:51.292Z,23.74
2016-10-19T10:48:01.739Z,23.78
2016-10-19T10:49:12.218Z,23.81
2016-10-19T10:50:22.654Z,23.89
2016-10-19T10:51:33.206Z,23.97
2016-10-19T10:52:43.649Z,24.14
2016-10-19T10:53:54.500Z,24.21
2016-10-19T10:55:19.492Z,24.24
2016-10-19T10:56:30.040Z,24.26
2016-10-19T10:57:40.484Z,24.3
2016-10-19T10:58:50.967Z,24.33
2016-10-19T11:00:01.434Z,24.34
2016-10-19T11:01:11.878Z,24.37
2016-10-19T11:02:22.329Z,24.48
2016-10-19T11:03:32.779Z,24.61
2016-10-19T11:04:43.773Z,24.71
2016-10-19T11:05:54.812Z,24.63
2016-10-19T11:07:05.390Z,24.75
2016-10-19T11:09:40.988Z,24.83
2016-10-19T11:10:51.533Z,24.86
2016-10-19T11:12:02.076Z,24.9
2016-10-19T11:13:12.735Z,25.01
2016-10-19T11:14:23.288Z,25.01
2016-10-19T11:15:33.843Z,25.09
2016-10-19T11:16:44.385Z,25.14
2016-10-19T11:17:54.903Z,25.29
2016-10-19T11:19:05.470Z,25.3
2016-10-19T11:20:16.154Z,25.38
2016-10-19T11:21:27.601Z,25.44
2016-10-19T11:22:40.729Z,25.54
2016-10-19T11:23:52.213Z,25.63
2016-10-19T11:25:05.186Z,25.64
2016-10-19T11:26:30.704Z,25.69
2016-10-19T11:27:42.737Z,25.82
2016-10-19T11:28:54.559Z,25.89
2016-10-19T11:30:05.631Z,26.01
2016-10-19T11:32:43.100Z,26.31
2016-10-19T11:33:56.251Z,26.2
2016-10-19T11:35:07.778Z,26.39
2016-10-19T11:36:18.717Z,26.53
2016-10-19T11:37:29.621Z,26.57
2016-10-19T11:38:40.043Z,26.65
2016-10-19T11:39:50.962Z,26.68
2016-10-19T11:41:01.513Z,26.81
2016-10-19T11:42:11.932Z,26.78
2016-10-19T11:43:22.389Z,26.94
2016-10-19T11:44:32.807Z,26.93
2016-10-19T11:45:43.225Z,26.96
2016-10-19T11:46:53.738Z,27.06
2016-10-19T11:48:04.155Z,27.08
2016-10-19T11:49:14.520Z,27.13
2016-10-19T11:50:25.315Z,27.16
2016-10-19T11:53:00.642Z,27.4
2016-10-19T11:54:10.966Z,27.48
2016-10-19T11:55:21.293Z,27.52
2016-10-19T11:56:31.623Z,27.63
2016-10-19T11:57:41.956Z,27.63
2016-10-19T11:58:52.317Z,27.77
2016-10-19T12:00:03.342Z,27.76
2016-10-19T12:01:13.664Z,27.93
2016-10-19T12:02:24.028Z,27.93
2016-10-19T12:03:34.363Z,28.02
2016-10-19T12:04:45.183Z,28.25
2016-10-19T12:05:55.553Z,28.28
2016-10-19T12:07:05.914Z,28.28
2016-10-19T12:08:16.276Z,28.42
2016-10-19T12:09:26.603Z,28.4
2016-10-19T12:10:36.935Z,28.5
2016-10-19T12:11:47.261Z,28.48
2016-10-19T12:12:57.585Z,28.65
2016-10-19T12:14:07.920Z,28.79
2016-10-19T12:15:18.358Z,28.77
2016-10-19T12:16:28.687Z,28.95
2016-10-19T12:17:39.014Z,29.1
2016-10-19T12:18:49.339Z,29.18
2016-10-19T12:19:59.668Z,29.3
2016-10-19T12:21:10.121Z,29.51
2016-10-19T12:22:20.478Z,29.71
2016-10-19T12:23:30.809Z,30.11
2016-10-19T12:24:41.137Z,30.3
2016-10-19T12:25:51.465Z,30.46
2016-10-19T12:27:01.902Z,30.79
2016-10-19T12:28:12.238Z,30.9
2016-10-19T12:29:22.569Z,31.1
2016-10-19T12:30:32.897Z,31.2
2016-10-19T12:31:43.265Z,31.27
2016-10-19T12:32:53.597Z,31.42
2016-10-19T12:34:03.931Z,31.54
2016-10-19T12:35:29.350Z,31.84
2016-10-19T12:36:40.172Z,32.02
2016-10-19T12:37:50.626Z,31.98
2016-10-19T12:39:01.155Z,32.07
2016-10-19T12:40:12.160Z,32.19
2016-10-19T12:41:22.488Z,32.14
2016-10-19T12:42:32.825Z,32.13
2016-10-19T12:43:43.638Z,32.16
2016-10-19T12:44:54.174Z,32.34
2016-10-19T12:46:04.507Z,32.47
2016-10-19T12:47:14.855Z,32.73
2016-10-19T12:48:25.224Z,32.9
2016-10-19T12:49:35.660Z,32.87
2016-10-19T12:50:46.179Z,32.88
2016-10-19T12:51:56.513Z,32.93
2016-10-19T12:53:06.862Z,33.17
2016-10-19T12:54:17.199Z,33.28
2016-10-19T12:55:27.542Z,33.09
2016-10-19T12:56:37.871Z,33.18
2016-10-19T12:57:48.198Z,33.14
2016-10-19T12:59:13.103Z,33.57
2016-10-19T13:00:38.114Z,33.9
2016-10-19T13:01:48.971Z,34.12
2016-10-19T13:02:59.303Z,34.16
2016-10-19T13:04:10.134Z,34.33
2016-10-19T13:05:20.465Z,34.18
2016-10-19T13:06:30.808Z,34.46
2016-10-19T13:07:41.622Z,34.26
2016-10-19T13:08:51.951Z,34.11
2016-10-19T13:10:02.758Z,33.92
2016-10-19T13:11:13.103Z,33.87
2016-10-19T13:12:23.437Z,34.05
2016-10-19T13:13:33.774Z,34.14
2016-10-19T13:14:44.111Z,33.72
2016-10-19T13:15:54.517Z,33.77
2016-10-19T13:17:04.861Z,33.63
2016-10-19T13:18:15.197Z,33.84
2016-10-19T13:19:40.137Z,33.99
2016-10-19T13:20:50.566Z,34
2016-10-19T13:22:01.483Z,34.15
2016-10-19T13:23:11.909Z,34.16
2016-10-19T13:24:22.339Z,34.21
2016-10-19T13:25:32.766Z,34.24
2016-10-19T13:26:43.198Z,34.42
2016-10-19T13:27:53.620Z,34.42
2016-10-19T13:29:04.083Z,34.38
2016-10-19T13:30:14.520Z,34.43
2016-10-19T13:31:25.151Z,34.48
2016-10-19T13:32:50.137Z,34.69
2016-10-19T13:34:00.625Z,34.6
2016-10-19T13:35:11.167Z,34.31
2016-10-19T13:36:21.723Z,34.16
2016-10-19T13:37:46.829Z,34.33
2016-10-19T13:38:57.381Z,34.4
2016-10-19T13:40:08.436Z,34.6
2016-10-19T13:41:19.016Z,34.64
2016-10-19T13:42:29.559Z,34.61
2016-10-19T13:43:40.103Z,34.72
2016-10-19T13:44:50.651Z,34.65
2016-10-19T13:46:01.313Z,34.73
2016-10-19T13:47:26.890Z,34.73
2016-10-19T13:48:37.438Z,34.8
2016-10-19T13:49:47.989Z,34.78
2016-10-19T13:50:58.538Z,34.88
2016-10-19T13:52:09.090Z,34.87
2016-10-19T13:53:19.635Z,34.93
2016-10-19T13:54:30.183Z,34.95
2016-10-19T13:55:40.728Z,35
2016-10-19T13:56:51.318Z,34.94
2016-10-19T13:58:01.869Z,34.84
2016-10-19T14:00:56.442Z,34.78
